Austin Straubel International, WI

7:13 PM CDT on March 30, 2017 (GMT -0500)
Austin Straubel International | | Change Station
Active Advisory: Special Statement

Elev 692 ft 44.49 °N, 88.13 °W | Updated 10 minutes ago

Overcast
Overcast
35 °F
Feels Like 25 °F
N
17
Wind Variable Wind from NNE
Gusts 29 mph

Today
High -- | Low -- °F
--% Chance of Precip.
Yesterday
High -- | Low -- °F
Precip. -- in
Pressure 29.82 in
Visibility 10.0 miles
Clouds Overcast 500 ft
Windchill 25 °F
Dew Point 35 °F
Humidity 100%
Rainfall 0.26 in
Snow Depth Not available.
6:36 AM 7:17 PM
Waxing Crescent, 11% visible
SPECI KGRB 310003Z 03015G25KT 10SM OVC005 02/02 A2982 RMK AO2 T00170017
Pressure 29.82 in
Visibility 10.0 miles
Clouds Overcast 500 ft
Windchill 25 °F
Dew Point 35 °F
Humidity 100%
Rainfall 0.26 in
Snow Depth Not available.
6:36 AM 7:17 PM
Waxing Crescent, 11% visible
SPECI KGRB 310003Z 03015G25KT 10SM OVC005 02/02 A2982 RMK AO2 T00170017

Get Your Daily Forecast Email!

Thanks for signing up!

Be on the lookout for a verification email in your inbox.

You'll start receiving severe weather alerts in your inbox..

×

10-Day Weather Forecast

Almanac

Astronomy

Mar. 30, 2017 Rise Set
Actual Time
Civil Twilight
Nautical Twilight
Astronomical Twilight
Moon
Length of Visible Light
Length of Day
Tomorrow will be .
, % of the Moon is Illuminated

Today's Extremes

State Highs State Lows

Community

WunderPhotos

Upload Photos

1,962,540 photos uploaded!

WunderBlog® & News

Nearby

Air Quality

  Air Quality AQ Index Pollutant
Not available.

Snow Depth

Station Depth Elevation

Earthquake Activity

City Distance Mag. Time & Date
Minimum magnitude displayed is 2.5.

Earthquake Activity

City Distance Mag. Time & Date
Minimum magnitude displayed is 2.5.

Coastal Water Temperatures

Place Temperature

Stations

Nearby Weather Stations

Station Location Temp. Windchill Dew Point Humidity Wind Precip. Elev Updated Type
                   

Watches & Warnings

Special Statement
Issued: 4:52 PM CDT Mar. 30, 2017 – National Weather Service

... Slippery roads and sidewalks possible tonight...

A mixture of rain, sleet and snow should change to mainly snow
this evening. An inch or so of snow is possible, especially on
the grass. Roads and sidewalks could become slippery in some
places, so travel with care if you will be out tonight.


Rdm

452 PM CDT Thu Mar 30 2017

... Slippery roads and sidewalks possible tonight...

A mixture of rain, sleet and snow should change to mainly snow
this evening. An inch or so of snow is possible, especially on
the grass. Roads and sidewalks could become slippery in some
places, so travel with care if you will be out tonight.


Rdm